Time,TemperatureF,DewpointF,PressureIn,WindDirection,WindDirectionDegrees,WindSpeedMPH,WindSpeedGustMPH,Humidity,HourlyPrecipIn,Conditions,Clouds,dailyrainin,SolarRadiationWatts/m^2,SoftwareType,DateUTC
2013-02-05 00:06:00,37.6,27.0,30.33,North,5,2.0,4.0,67,0.00,,,0.00,0,weatherlink.com 1.10,2013-02-05 07:06:00,
2013-02-05 00:21:00,36.2,28.0,30.34,NNE,26,2.0,3.0,71,0.00,,,0.00,0,weatherlink.com 1.10,2013-02-05 07:21:00,
2013-02-05 00:36:00,36.9,28.0,30.32,ENE,65,5.0,7.0,69,0.00,,,0.00,0,weatherlink.com 1.10,2013-02-05 07:36:00,
2013-02-05 00:51:00,38.0,28.0,30.34,ENE,61,0.0,4.0,67,0.00,,,0.00,0,weatherlink.com 1.10,2013-02-05 07:51:00,
2013-02-05 01:06:00,37.6,28.0,30.32,SE,133,0.0,3.0,68,0.00,,,0.00,0,weatherlink.com 1.10,2013-02-05 08:06:00,
2013-02-05 01:21:00,37.3,28.0,30.31,SSW,198,1.0,5.0,68,0.00,,,0.00,0,weatherlink.com 1.10,2013-02-05 08:21:00,
2013-02-05 01:36:00,36.2,28.0,30.32,SSW,207,4.0,7.0,71,0.00,,,0.00,0,weatherlink.com 1.10,2013-02-05 08:36:00,
2013-02-05 01:51:00,35.2,27.0,30.32,South,169,3.0,5.0,73,0.00,,,0.00,0,weatherlink.com 1.10,2013-02-05 08:51:00,
2013-02-05 02:06:00,36.1,28.0,30.32,SSE,161,2.0,6.0,71,0.00,,,0.00,0,weatherlink.com 1.10,2013-02-05 09:06:00,
2013-02-05 02:21:00,36.4,28.0,30.32,SSE,167,3.0,5.0,71,0.00,,,0.00,0,weatherlink.com 1.10,2013-02-05 09:21:00,
2013-02-05 02:36:00,36.1,28.0,30.31,SSE,155,0.0,6.0,72,0.00,,,0.00,0,weatherlink.com 1.10,2013-02-05 09:36:00,
2013-02-05 02:51:00,35.6,28.0,30.31,SSE,150,2.0,4.0,73,0.00,,,0.00,0,weatherlink.com 1.10,2013-02-05 09:51:00,
2013-02-05 03:06:00,35.5,28.0,30.31,SSE,150,0.0,1.0,73,0.00,,,0.00,0,weatherlink.com 1.10,2013-02-05 10:06:00,
2013-02-05 03:21:00,35.7,28.0,30.30,ESE,111,1.0,4.0,73,0.00,,,0.00,0,weatherlink.com 1.10,2013-02-05 10:21:00,
2013-02-05 03:36:00,35.8,28.0,30.29,South,186,1.0,4.0,73,0.00,,,0.00,0,weatherlink.com 1.10,2013-02-05 10:36:00,
2013-02-05 03:51:00,35.1,28.0,30.30,South,186,0.0,2.0,75,0.00,,,0.00,0,weatherlink.com 1.10,2013-02-05 10:51:00,
2013-02-05 04:06:00,34.5,28.0,30.30,SSW,198,1.0,6.0,77,0.00,,,0.00,0,weatherlink.com 1.10,2013-02-05 11:06:00,
2013-02-05 04:21:00,34.5,28.0,30.30,SE,144,6.0,7.0,77,0.00,,,0.00,0,weatherlink.com 1.10,2013-02-05 11:21:00,
2013-02-05 04:36:00,35.8,28.0,30.29,SSE,155,7.0,9.0,73,0.00,,,0.00,0,weatherlink.com 1.10,2013-02-05 11:36:00,
2013-02-05 04:51:00,35.1,28.0,30.29,SSW,201,0.0,6.0,75,0.00,,,0.00,0,weatherlink.com 1.10,2013-02-05 11:51:00,
2013-02-05 05:06:00,33.0,28.0,30.29,East,89,3.0,5.0,81,0.00,,,0.00,0,weatherlink.com 1.10,2013-02-05 12:06:00,
2013-02-05 05:21:00,34.0,28.0,30.29,NE,35,1.0,4.0,78,0.00,,,0.00,0,weatherlink.com 1.10,2013-02-05 12:21:00,
2013-02-05 05:36:00,34.3,28.0,30.29,NE,35,0.0,2.0,77,0.00,,,0.00,0,weatherlink.com 1.10,2013-02-05 12:36:00,
2013-02-05 05:51:00,35.0,28.0,30.28,ESE,121,1.0,2.0,76,0.00,,,0.00,0,weatherlink.com 1.10,2013-02-05 12:51:00,
2013-02-05 06:06:00,35.1,28.0,30.28,South,181,4.0,5.0,75,0.00,,,0.00,0,weatherlink.com 1.10,2013-02-05 13:06:00,
2013-02-05 06:21:00,34.5,28.0,30.28,SSW,195,2.0,6.0,77,0.00,,,0.00,0,weatherlink.com 1.10,2013-02-05 13:21:00,
2013-02-05 06:36:00,34.2,28.0,30.27,South,182,2.0,5.0,77,0.00,,,0.00,0,weatherlink.com 1.10,2013-02-05 13:36:00,
2013-02-05 06:51:00,35.2,28.0,30.27,SE,143,0.0,4.0,76,0.00,,,0.00,0,weatherlink.com 1.10,2013-02-05 13:51:00,
2013-02-05 07:06:00,34.7,28.0,30.27,SE,143,0.0,1.0,76,0.00,,,0.00,0,weatherlink.com 1.10,2013-02-05 14:06:00,
2013-02-05 07:21:00,34.3,28.0,30.27,SE,140,3.0,3.0,77,0.00,,,0.00,0,weatherlink.com 1.10,2013-02-05 14:21:00,
2013-02-05 07:36:00,35.2,28.0,30.27,SSE,153,4.0,5.0,76,0.00,,,0.00,0,weatherlink.com 1.10,2013-02-05 14:36:00,
2013-02-05 07:51:00,35.4,28.0,30.27,South,171,4.0,5.0,75,0.00,,,0.00,0,weatherlink.com 1.10,2013-02-05 14:51:00,
2013-02-05 08:06:00,36.2,29.0,30.26,South,177,2.0,7.0,75,0.00,,,0.00,11,weatherlink.com 1.10,2013-02-05 15:06:00,
2013-02-05 08:21:00,34.0,28.0,30.26,WSW,249,0.0,4.0,78,0.00,,,0.00,16,weatherlink.com 1.10,2013-02-05 15:21:00,
2013-02-05 08:36:00,33.7,28.0,30.27,WSW,250,2.0,3.0,79,0.00,,,0.00,30,weatherlink.com 1.10,2013-02-05 15:36:00,
2013-02-05 08:51:00,34.4,28.0,30.27,WSW,254,3.0,4.0,78,0.00,,,0.00,63,weatherlink.com 1.10,2013-02-05 15:51:00,
2013-02-05 09:06:00,35.1,29.0,30.27,WSW,254,2.0,2.0,77,0.00,,,0.00,69,weatherlink.com 1.10,2013-02-05 16:06:00,
2013-02-05 09:21:00,35.2,29.0,30.27,WSW,254,2.0,3.0,77,0.00,,,0.00,58,weatherlink.com 1.10,2013-02-05 16:21:00,
2013-02-05 09:36:00,35.6,29.0,30.27,WSW,254,0.0,2.0,76,0.00,,,0.00,30,weatherlink.com 1.10,2013-02-05 16:36:00,
2013-02-05 09:51:00,36.8,31.0,30.24,SSE,156,8.0,11.0,80,0.00,,,0.00,42,weatherlink.com 1.10,2013-02-05 16:51:00,
2013-02-05 10:07:00,34.8,29.0,30.25,SSW,212,7.0,8.0,79,0.00,,,0.00,79,weatherlink.com 1.10,2013-02-05 17:07:00,
2013-02-05 10:22:00,35.0,30.0,30.23,South,177,0.0,8.0,81,0.00,,,0.00,98,weatherlink.com 1.10,2013-02-05 17:22:00,
2013-02-05 10:37:00,35.4,30.0,30.23,SSW,198,6.0,7.0,80,0.00,,,0.00,139,weatherlink.com 1.10,2013-02-05 17:37:00,
2013-02-05 10:52:00,36.2,31.0,30.23,SSE,161,2.0,7.0,80,0.00,,,0.00,130,weatherlink.com 1.10,2013-02-05 17:52:00,
2013-02-05 11:07:00,37.2,31.0,30.23,SE,132,4.0,5.0,79,0.00,,,0.00,109,weatherlink.com 1.10,2013-02-05 18:07:00,
2013-02-05 11:22:00,38.2,31.0,30.23,South,188,5.0,7.0,75,0.00,,,0.00,156,weatherlink.com 1.10,2013-02-05 18:22:00,
2013-02-05 11:37:00,37.4,31.0,30.23,SW,221,2.0,5.0,79,0.00,,,0.00,232,weatherlink.com 1.10,2013-02-05 18:37:00,
2013-02-05 11:52:00,38.0,31.0,30.22,WSW,255,0.0,3.0,77,0.00,,,0.00,250,weatherlink.com 1.10,2013-02-05 18:52:00,
2013-02-05 12:07:00,38.0,31.0,30.21,West,266,3.0,5.0,77,0.00,,,0.00,248,weatherlink.com 1.10,2013-02-05 19:07:00,
2013-02-05 12:22:00,38.7,32.0,30.20,South,184,1.0,3.0,77,0.00,,,0.00,316,weatherlink.com 1.10,2013-02-05 19:22:00,
2013-02-05 12:37:00,39.7,33.0,30.19,West,259,2.0,7.0,76,0.00,,,0.00,448,weatherlink.com 1.10,2013-02-05 19:37:00,
2013-02-05 12:52:00,39.8,32.0,30.18,North,11,3.0,4.0,74,0.00,,,0.00,174,weatherlink.com 1.10,2013-02-05 19:52:00,
2013-02-05 13:07:00,39.3,32.0,30.18,NNE,28,4.0,5.0,75,0.00,,,0.00,193,weatherlink.com 1.10,2013-02-05 20:07:00,
2013-02-05 13:22:00,39.8,33.0,30.16,WNW,294,3.0,5.0,76,0.00,,,0.00,185,weatherlink.com 1.10,2013-02-05 20:22:00,
2013-02-05 13:37:00,40.5,33.0,30.15,West,265,2.0,4.0,74,0.00,,,0.00,209,weatherlink.com 1.10,2013-02-05 20:37:00,
2013-02-05 13:52:00,40.8,33.0,30.15,NE,35,2.0,4.0,73,0.00,,,0.00,216,weatherlink.com 1.10,2013-02-05 20:52:00,
2013-02-05 14:07:00,40.8,33.0,30.15,North,360,5.0,5.0,73,0.00,,,0.00,167,weatherlink.com 1.10,2013-02-05 21:07:00,
2013-02-05 14:22:00,41.5,33.0,30.14,ESE,108,3.0,7.0,73,0.00,,,0.00,229,weatherlink.com 1.10,2013-02-05 21:22:00,
2013-02-05 14:37:00,44.6,34.0,30.14,NNW,334,2.0,6.0,66,0.00,,,0.00,278,weatherlink.com 1.10,2013-02-05 21:37:00,
2013-02-05 14:52:00,45.4,34.0,30.13,East,84,0.0,4.0,64,0.00,,,0.00,364,weatherlink.com 1.10,2013-02-05 21:52:00,
2013-02-05 15:07:00,45.3,34.0,30.13,SE,138,4.0,5.0,66,0.00,,,0.00,492,weatherlink.com 1.10,2013-02-05 22:07:00,
2013-02-05 15:22:00,45.6,33.0,30.13,ENE,59,4.0,7.0,62,0.00,,,0.00,183,weatherlink.com 1.10,2013-02-05 22:22:00,
2013-02-05 15:37:00,47.6,33.0,30.13,NW,314,2.0,5.0,57,0.00,,,0.00,404,weatherlink.com 1.10,2013-02-05 22:37:00,
2013-02-05 15:52:00,47.5,27.0,30.12,NE,41,0.0,4.0,45,0.00,,,0.00,146,weatherlink.com 1.10,2013-02-05 22:52:00,
2013-02-05 16:07:00,47.8,32.0,30.13,WNW,288,1.0,5.0,55,0.00,,,0.00,111,weatherlink.com 1.10,2013-02-05 23:07:00,
2013-02-05 16:38:00,46.7,31.0,30.11,SSW,208,2.0,3.0,54,0.00,,,0.00,141,weatherlink.com 1.10,2013-02-05 23:38:00,
2013-02-05 16:53:00,46.6,32.0,30.11,SW,216,1.0,6.0,57,0.00,,,0.00,100,weatherlink.com 1.10,2013-02-05 23:53:00,
2013-02-05 17:08:00,45.9,31.0,30.11,SSW,192,1.0,7.0,57,0.00,,,0.00,63,weatherlink.com 1.10,2013-02-06 00:08:00,
2013-02-05 17:23:00,45.2,30.0,30.11,SW,230,1.0,2.0,56,0.00,,,0.00,21,weatherlink.com 1.10,2013-02-06 00:23:00,
2013-02-05 17:38:00,45.6,30.0,30.11,ENE,59,3.0,5.0,54,0.00,,,0.00,7,weatherlink.com 1.10,2013-02-06 00:38:00,
2013-02-05 17:53:00,44.0,31.0,30.12,North,355,3.0,5.0,60,0.00,,,0.00,0,weatherlink.com 1.10,2013-02-06 00:53:00,
2013-02-05 18:08:00,43.2,28.0,30.11,NE,43,5.0,7.0,55,0.00,,,0.00,0,weatherlink.com 1.10,2013-02-06 01:08:00,
2013-02-05 18:23:00,43.3,27.0,30.11,ENE,63,3.0,7.0,53,0.00,,,0.00,0,weatherlink.com 1.10,2013-02-06 01:23:00,
2013-02-05 18:38:00,42.9,27.0,30.12,NNE,29,8.0,10.0,54,0.00,,,0.00,0,weatherlink.com 1.10,2013-02-06 01:38:00,
2013-02-05 18:53:00,42.6,28.0,30.12,NE,48,7.0,9.0,57,0.00,,,0.00,0,weatherlink.com 1.10,2013-02-06 01:53:00,
2013-02-05 19:08:00,42.8,28.0,30.13,NNE,14,9.0,10.0,56,0.00,,,0.00,0,weatherlink.com 1.10,2013-02-06 02:08:00,
2013-02-05 19:23:00,41.9,28.0,30.13,North,355,7.0,12.0,59,0.00,,,0.00,0,weatherlink.com 1.10,2013-02-06 02:23:00,
2013-02-05 19:38:00,42.9,28.0,30.13,North,360,10.0,14.0,55,0.00,,,0.00,0,weatherlink.com 1.10,2013-02-06 02:38:00,
2013-02-05 19:53:00,41.2,29.0,30.14,NNW,333,18.0,20.0,62,0.00,,,0.00,0,weatherlink.com 1.10,2013-02-06 02:53:00,
2013-02-05 20:08:00,40.6,30.0,30.15,NNW,343,21.0,28.0,65,0.00,,,0.00,0,weatherlink.com 1.10,2013-02-06 03:08:00,
2013-02-05 20:23:00,40.9,29.0,30.14,NW,321,4.0,19.0,63,0.00,,,0.00,0,weatherlink.com 1.10,2013-02-06 03:23:00,
2013-02-05 20:38:00,40.7,29.0,30.15,NE,51,7.0,18.0,64,0.00,,,0.00,0,weatherlink.com 1.10,2013-02-06 03:38:00,
2013-02-05 20:53:00,40.3,30.0,30.15,NNE,28,13.0,14.0,66,0.00,,,0.00,0,weatherlink.com 1.10,2013-02-06 03:53:00,
2013-02-05 21:08:00,40.3,30.0,30.15,NNE,25,14.0,18.0,66,0.00,,,0.00,0,weatherlink.com 1.10,2013-02-06 04:08:00,
2013-02-05 21:23:00,40.4,29.0,30.16,NNE,25,13.0,19.0,65,0.00,,,0.00,0,weatherlink.com 1.10,2013-02-06 04:23:00,
2013-02-05 21:38:00,40.3,30.0,30.16,North,10,18.0,18.0,66,0.00,,,0.00,0,weatherlink.com 1.10,2013-02-06 04:38:00,
2013-02-05 21:53:00,38.7,30.0,30.17,North,355,14.0,27.0,72,0.00,,,0.00,0,weatherlink.com 1.10,2013-02-06 04:53:00,
2013-02-05 22:08:00,38.5,30.0,30.19,North,355,19.0,30.0,72,0.00,,,0.00,0,weatherlink.com 1.10,2013-02-06 05:08:00,
2013-02-05 22:23:00,38.5,29.0,30.20,North,355,11.0,24.0,70,0.00,,,0.00,0,weatherlink.com 1.10,2013-02-06 05:23:00,
2013-02-05 22:38:00,38.2,28.0,30.20,North,360,16.0,19.0,67,0.00,,,0.00,0,weatherlink.com 1.10,2013-02-06 05:38:00,
2013-02-05 22:53:00,38.9,26.0,30.20,North,355,20.0,22.0,61,0.00,,,0.00,0,weatherlink.com 1.10,2013-02-06 05:53:00,
2013-02-05 23:08:00,39.7,24.0,30.21,North,360,20.0,30.0,54,0.00,,,0.00,0,weatherlink.com 1.10,2013-02-06 06:08:00,
2013-02-05 23:23:00,39.3,23.0,30.23,NNW,347,16.0,36.0,53,0.00,,,0.00,0,weatherlink.com 1.10,2013-02-06 06:23:00,
2013-02-05 23:38:00,39.6,22.0,30.24,NNW,338,11.0,31.0,50,0.00,,,0.00,0,weatherlink.com 1.10,2013-02-06 06:38:00,
2013-02-05 23:53:00,39.7,22.0,30.25,NW,321,8.0,19.0,50,0.00,,,0.00,0,weatherlink.com 1.10,2013-02-06 06:53:00,